Rockfall, Connecticut
Current Conditions -  °F | °C
As of 3:53 AM on Wednesday 22 Oct 2014 (Local Time) from KMMK Reporting Station
Overcast Overcast  
Wind Chill: 54°   Ceiling: 1100
Heat Index: 54°   Visibility: 10mi
Dew Point: 50°   Wind: 12mph
Humidity: 86%   Direction: 20°NNE
Pressure: 29.93"   Gusts: 18mph
Location:  41.53°N, 72.7°W
Report Text: KMMK 220753Z AUTO 02010G16KT 10SM OVC011 12/10 A2993 RMK AO2 SLP136 T01220100 TSNO
Loading
Personal Weather Stations






























Interactive Weather Map New forecast layout! Learn more

10-Day Weather Forecast

Advertisements
Track Severe Weather on mobile